createdAt,value
2023-05-08T00:01:00.883Z,36.10
2023-05-08T00:03:47.499Z,38.60
2023-05-08T00:06:34.120Z,30.40
2023-05-08T00:09:20.981Z,33.70
2023-05-08T00:12:07.307Z,31.20
2023-05-08T00:14:53.399Z,30.40
2023-05-08T00:17:39.953Z,32.20
2023-05-08T00:20:26.388Z,30.70
2023-05-08T00:23:12.960Z,36.60
2023-05-08T00:25:59.785Z,33.80
2023-05-08T00:28:46.242Z,22.70
2023-05-08T00:31:32.775Z,33.80
2023-05-08T00:34:19.311Z,34.40
2023-05-08T00:37:05.935Z,31.60
2023-05-08T00:39:52.684Z,27.30
2023-05-08T00:42:39.829Z,33.90
2023-05-08T00:45:34.582Z,28.40
2023-05-08T00:48:26.396Z,18.60
2023-05-08T00:51:13.275Z,30.00
2023-05-08T00:54:00.335Z,27.40
2023-05-08T00:56:47.308Z,30.00
2023-05-08T00:59:35.738Z,25.60
2023-05-08T01:02:22.334Z,27.00
2023-05-08T01:05:09.514Z,31.00
2023-05-08T01:07:56.553Z,29.60
2023-05-08T01:10:46.347Z,27.20
2023-05-08T01:13:42.710Z,29.90
2023-05-08T01:16:37.682Z,28.10
2023-05-08T01:19:46.024Z,23.40
2023-05-08T01:23:01.010Z,25.10
2023-05-08T01:26:41.359Z,21.80
2023-05-08T01:30:01.229Z,29.20
2023-05-08T01:32:56.923Z,30.00
2023-05-08T01:35:49.940Z,30.40
2023-05-08T01:39:19.210Z,25.20
2023-05-08T01:42:14.384Z,23.00
2023-05-08T01:45:06.253Z,23.00
2023-05-08T01:48:06.568Z,30.00
2023-05-08T01:51:08.834Z,30.40
2023-05-08T01:54:04.273Z,25.50
2023-05-08T01:56:55.089Z,26.10
2023-05-08T01:59:44.781Z,27.20
2023-05-08T02:02:33.414Z,32.30
2023-05-08T02:05:22.876Z,33.00
2023-05-08T02:08:12.842Z,29.60
2023-05-08T02:11:00.976Z,30.80
2023-05-08T02:13:48.614Z,25.00
2023-05-08T02:16:39.555Z,24.70
2023-05-08T02:19:29.231Z,25.70
2023-05-08T02:22:18.274Z,25.10
2023-05-08T02:25:05.077Z,20.30
2023-05-08T02:27:54.299Z,30.10
2023-05-08T02:30:42.781Z,26.50
2023-05-08T02:33:30.864Z,21.50
2023-05-08T02:36:20.386Z,28.90
2023-05-08T02:39:11.781Z,30.30
2023-05-08T02:41:58.254Z,24.20
2023-05-08T02:44:45.038Z,24.00
2023-05-08T02:47:42.438Z,26.20
2023-05-08T02:50:41.615Z,20.50
2023-05-08T02:53:45.386Z,21.70
2023-05-08T02:56:44.299Z,21.30
2023-05-08T02:59:42.457Z,25.80
2023-05-08T03:02:43.207Z,23.20
2023-05-08T03:05:33.543Z,18.40
2023-05-08T03:08:29.830Z,26.20
2023-05-08T03:11:21.818Z,24.60
2023-05-08T03:14:14.229Z,20.50
2023-05-08T03:17:06.423Z,23.70
2023-05-08T03:19:58.151Z,25.40
2023-05-08T03:22:46.959Z,22.70
2023-05-08T03:25:38.601Z,16.10
2023-05-08T03:28:27.625Z,21.50
2023-05-08T03:31:21.449Z,18.10
2023-05-08T03:34:09.804Z,19.70
2023-05-08T03:36:57.060Z,21.80
2023-05-08T03:39:44.087Z,15.50
2023-05-08T03:42:31.493Z,19.70
2023-05-08T03:45:20.047Z,17.90
2023-05-08T03:48:09.582Z,19.60
2023-05-08T03:50:58.546Z,19.90
2023-05-08T03:53:45.366Z,17.90
2023-05-08T03:56:33.940Z,18.00
2023-05-08T03:59:32.436Z,17.20
2023-05-08T04:02:50.463Z,21.20
2023-05-08T04:05:47.019Z,15.20
2023-05-08T04:08:42.354Z,19.50
2023-05-08T04:11:45.956Z,21.90
2023-05-08T04:14:42.928Z,23.30
2023-05-08T04:18:00.455Z,20.60
2023-05-08T04:20:50.789Z,15.80
2023-05-08T04:23:39.894Z,17.20
2023-05-08T04:26:27.042Z,14.60
2023-05-08T04:29:17.029Z,16.60
2023-05-08T04:32:05.705Z,16.40
2023-05-08T04:34:53.274Z,21.10
2023-05-08T04:37:42.186Z,19.30
2023-05-08T04:40:30.025Z,15.80
2023-05-08T04:43:16.838Z,22.20
2023-05-08T04:46:06.214Z,17.30
2023-05-08T04:48:53.038Z,24.40
2023-05-08T04:51:39.876Z,20.40
2023-05-08T04:54:26.727Z,18.50
2023-05-08T04:57:14.365Z,20.40
2023-05-08T05:00:00.940Z,23.60
2023-05-08T05:02:48.900Z,25.20
2023-05-08T05:05:38.709Z,28.70
2023-05-08T05:08:25.974Z,33.70
2023-05-08T05:11:13.892Z,28.90
2023-05-08T05:14:00.703Z,25.00
2023-05-08T05:16:47.768Z,25.20
2023-05-08T05:19:34.784Z,20.50
2023-05-08T05:22:21.623Z,25.90
2023-05-08T05:25:08.757Z,21.70
2023-05-08T05:27:55.483Z,20.80
2023-05-08T05:30:48.076Z,22.40
2023-05-08T05:33:34.728Z,23.20
2023-05-08T05:36:21.213Z,29.50
2023-05-08T05:39:08.196Z,29.90
2023-05-08T05:41:55.042Z,25.70
2023-05-08T05:44:42.157Z,26.20
2023-05-08T05:47:29.269Z,21.60
2023-05-08T05:50:18.248Z,21.80
2023-05-08T05:53:05.678Z,21.10
2023-05-08T05:55:53.126Z,20.60
2023-05-08T05:58:44.405Z,20.80
2023-05-08T06:01:31.127Z,18.90
2023-05-08T06:04:17.739Z,16.70
2023-05-08T06:07:04.599Z,17.30
2023-05-08T06:09:51.274Z,13.20
2023-05-08T06:12:38.014Z,17.30
2023-05-08T06:15:25.447Z,12.00
2023-05-08T06:18:13.020Z,12.10
2023-05-08T06:20:59.447Z,10.00
2023-05-08T06:23:47.006Z,14.70
2023-05-08T06:26:33.868Z,10.70
2023-05-08T06:29:20.381Z,8.50
2023-05-08T06:32:07.330Z,13.30
2023-05-08T06:34:53.717Z,13.20
2023-05-08T06:37:40.129Z,11.30
2023-05-08T06:40:26.576Z,10.10
2023-05-08T06:43:13.757Z,12.20
2023-05-08T06:46:00.295Z,7.60
2023-05-08T06:48:49.389Z,6.70
2023-05-08T06:51:35.881Z,4.30
2023-05-08T06:54:22.433Z,6.00
2023-05-08T06:57:08.911Z,5.50
2023-05-08T06:59:55.418Z,6.10
2023-05-08T07:02:42.034Z,6.50
2023-05-08T07:05:28.627Z,7.10
2023-05-08T07:08:15.357Z,3.90
2023-05-08T07:11:01.967Z,4.90
2023-05-08T07:13:48.808Z,4.00
2023-05-08T07:16:35.340Z,4.00
2023-05-08T07:19:22.659Z,6.10
2023-05-08T07:22:09.113Z,3.50
2023-05-08T07:24:55.578Z,4.20
2023-05-08T07:27:42.597Z,4.00
2023-05-08T07:30:29.036Z,3.40
2023-05-08T07:33:15.677Z,4.50
2023-05-08T07:36:02.375Z,2.90
2023-05-08T07:38:48.983Z,3.30
2023-05-08T07:41:37.301Z,3.60
2023-05-08T07:44:23.745Z,4.10
2023-05-08T07:47:10.387Z,3.40
2023-05-08T07:49:56.988Z,3.10
2023-05-08T07:52:43.327Z,4.10
2023-05-08T07:55:29.685Z,6.00
2023-05-08T07:58:16.435Z,5.20
2023-05-08T08:01:03.389Z,6.20
2023-05-08T08:03:49.896Z,3.40
2023-05-08T08:06:36.570Z,5.20
2023-05-08T08:09:23.175Z,4.70
2023-05-08T08:12:09.640Z,4.30
2023-05-08T08:14:56.177Z,5.50
2023-05-08T08:17:42.402Z,4.10
2023-05-08T08:20:29.422Z,4.70
2023-05-08T08:23:16.158Z,4.90
2023-05-08T08:26:02.603Z,3.70
2023-05-08T08:28:49.183Z,4.60
2023-05-08T08:31:35.597Z,4.80
2023-05-08T08:34:22.706Z,5.50
2023-05-08T08:37:10.040Z,3.90
2023-05-08T08:39:56.640Z,4.60
2023-05-08T08:42:43.364Z,4.50
2023-05-08T08:45:31.158Z,4.60
2023-05-08T08:48:19.874Z,4.30
2023-05-08T08:51:13.634Z,3.80
2023-05-08T08:54:11.986Z,6.00
2023-05-08T08:57:02.105Z,4.30
2023-05-08T09:02:36.552Z,3.80
2023-05-08T09:05:24.379Z,5.60
2023-05-08T09:08:12.728Z,5.40
2023-05-08T09:11:02.212Z,4.30
2023-05-08T09:13:49.037Z,5.30
2023-05-08T09:16:35.811Z,3.80
2023-05-08T09:19:26.209Z,3.00
2023-05-08T09:22:14.776Z,3.70
2023-05-08T09:25:02.282Z,5.40
2023-05-08T09:27:48.842Z,3.90
2023-05-08T09:30:49.082Z,4.70
2023-05-08T09:33:44.614Z,4.40
2023-05-08T09:36:31.984Z,3.00
2023-05-08T09:39:25.896Z,4.00
2023-05-08T09:42:12.709Z,5.10
2023-05-08T09:44:59.137Z,3.80
2023-05-08T09:47:48.807Z,5.00
2023-05-08T09:50:35.494Z,4.00
2023-05-08T09:53:31.834Z,4.20
2023-05-08T09:56:30.067Z,3.30
2023-05-08T09:59:27.416Z,3.10
2023-05-08T10:02:16.359Z,4.00
2023-05-08T10:05:04.449Z,3.60
2023-05-08T10:07:51.483Z,4.00
2023-05-08T10:10:38.479Z,3.30
2023-05-08T10:13:26.237Z,6.10
2023-05-08T10:16:17.768Z,3.70
2023-05-08T10:19:09.165Z,3.20
2023-05-08T10:21:57.391Z,2.90
2023-05-08T10:24:46.854Z,3.70
2023-05-08T10:27:47.076Z,4.20
2023-05-08T10:30:35.598Z,4.20
2023-05-08T10:33:31.069Z,4.20
2023-05-08T10:36:18.353Z,6.70
2023-05-08T10:39:05.304Z,5.00
2023-05-08T10:41:52.031Z,3.30
2023-05-08T10:44:38.603Z,5.00
2023-05-08T10:47:46.148Z,2.80
2023-05-08T10:50:42.678Z,3.50
2023-05-08T10:53:36.275Z,3.60
2023-05-08T10:56:29.121Z,4.80
2023-05-08T10:59:19.875Z,5.00
2023-05-08T11:02:08.314Z,4.40
2023-05-08T11:04:55.209Z,3.50
2023-05-08T11:07:58.700Z,5.60
2023-05-08T11:11:05.156Z,5.60
2023-05-08T11:13:57.998Z,5.20
2023-05-08T11:17:08.568Z,4.10
2023-05-08T11:20:00.736Z,6.30
2023-05-08T11:22:48.094Z,3.40
2023-05-08T11:25:44.753Z,2.70
2023-05-08T11:28:39.149Z,3.40
2023-05-08T11:31:52.566Z,4.20
2023-05-08T11:34:41.981Z,3.00
2023-05-08T11:37:29.617Z,4.40
2023-05-08T11:40:47.014Z,2.50
2023-05-08T11:43:33.572Z,3.00
2023-05-08T11:46:21.848Z,3.60
2023-05-08T11:49:14.439Z,3.30
2023-05-08T11:52:04.414Z,3.20
2023-05-08T11:54:50.620Z,3.40
2023-05-08T11:57:37.266Z,3.40
2023-05-08T12:00:23.537Z,4.20
2023-05-08T12:03:13.262Z,4.70
2023-05-08T12:06:00.029Z,4.70
2023-05-08T12:08:46.594Z,3.50
2023-05-08T12:11:33.130Z,3.60
2023-05-08T12:14:19.918Z,3.80
2023-05-08T12:17:06.860Z,4.90
2023-05-08T12:19:56.704Z,3.70
2023-05-08T12:22:50.651Z,4.90
2023-05-08T12:25:39.156Z,3.30
2023-05-08T12:28:25.284Z,4.90
2023-05-08T12:31:12.713Z,3.00
2023-05-08T12:33:59.763Z,3.30
2023-05-08T12:36:46.599Z,3.90
2023-05-08T12:39:37.758Z,4.80
2023-05-08T12:42:44.893Z,4.40
2023-05-08T12:45:34.944Z,3.90
2023-05-08T12:48:21.616Z,5.00
2023-05-08T12:51:08.485Z,2.90
2023-05-08T12:53:54.942Z,4.20
2023-05-08T12:56:47.086Z,6.60
2023-05-08T12:59:33.675Z,3.10
2023-05-08T13:02:26.573Z,3.40
2023-05-08T13:05:19.034Z,4.80
2023-05-08T13:08:07.479Z,4.10
2023-05-08T13:10:55.698Z,4.10
2023-05-08T13:13:42.375Z,3.50
2023-05-08T13:16:28.878Z,3.30
2023-05-08T13:19:16.015Z,4.10
2023-05-08T13:22:02.487Z,2.80
2023-05-08T13:24:49.053Z,5.90
2023-05-08T13:27:35.727Z,3.30
2023-05-08T13:30:22.849Z,3.20
2023-05-08T13:33:09.627Z,4.00
2023-05-08T13:35:56.253Z,3.80
2023-05-08T13:38:42.981Z,3.00
2023-05-08T13:41:29.533Z,3.90
2023-05-08T13:44:15.938Z,3.30
2023-05-08T13:47:02.555Z,3.70
2023-05-08T13:49:50.306Z,2.90
2023-05-08T13:52:40.364Z,2.60
2023-05-08T13:55:26.900Z,3.20
2023-05-08T13:58:13.781Z,4.50
2023-05-08T14:01:10.297Z,3.80
2023-05-08T14:04:01.027Z,2.60
2023-05-08T14:06:47.718Z,3.60
2023-05-08T14:09:34.131Z,3.50
2023-05-08T14:12:20.436Z,3.60
2023-05-08T14:15:07.895Z,3.00
2023-05-08T14:17:54.089Z,2.50
2023-05-08T14:20:40.632Z,3.40
2023-05-08T14:23:28.055Z,3.80
2023-05-08T14:26:14.765Z,3.40
2023-05-08T14:29:01.027Z,2.90
2023-05-08T14:31:47.923Z,3.30
2023-05-08T14:34:35.141Z,4.60
2023-05-08T14:37:21.424Z,3.00
2023-05-08T14:40:11.152Z,3.00
2023-05-08T14:42:57.634Z,3.60
2023-05-08T14:45:44.140Z,3.30
2023-05-08T14:48:30.537Z,2.80
2023-05-08T14:51:19.399Z,3.20
2023-05-08T14:54:06.708Z,3.50
2023-05-08T14:56:53.601Z,3.40
2023-05-08T14:59:49.095Z,3.80
2023-05-08T15:02:40.193Z,3.00
2023-05-08T15:05:27.405Z,2.60
2023-05-08T15:08:14.323Z,3.30
2023-05-08T15:11:00.907Z,3.50
2023-05-08T15:13:47.406Z,2.70
2023-05-08T15:16:33.970Z,3.50
2023-05-08T15:19:20.935Z,2.90
2023-05-08T15:22:07.656Z,4.50
2023-05-08T15:24:54.072Z,3.70
2023-05-08T15:27:41.714Z,3.30
2023-05-08T15:30:28.056Z,4.50
2023-05-08T15:33:14.693Z,3.60
2023-05-08T15:36:01.262Z,3.20
2023-05-08T15:38:49.294Z,4.00
2023-05-08T15:41:37.308Z,3.20
2023-05-08T15:44:26.469Z,3.50
2023-05-08T15:47:13.285Z,4.50
2023-05-08T15:49:59.558Z,4.40
2023-05-08T15:52:46.047Z,3.40
2023-05-08T15:55:32.749Z,3.60
2023-05-08T15:58:19.049Z,3.50
2023-05-08T16:01:06.112Z,4.20
2023-05-08T16:03:52.630Z,4.40
2023-05-08T16:06:39.309Z,3.70
2023-05-08T16:09:26.452Z,2.90
2023-05-08T16:12:12.823Z,2.70
2023-05-08T16:14:59.424Z,3.50
2023-05-08T16:17:45.924Z,4.20
2023-05-08T16:20:34.990Z,3.40
2023-05-08T16:23:22.336Z,4.10
2023-05-08T16:26:09.453Z,3.10
2023-05-08T16:28:55.951Z,3.40
2023-05-08T16:31:42.336Z,3.30
2023-05-08T16:34:28.827Z,3.50
2023-05-08T16:37:15.651Z,4.20
2023-05-08T16:40:02.580Z,3.10
2023-05-08T16:42:49.256Z,3.60
2023-05-08T16:45:35.785Z,3.10
2023-05-08T16:48:22.023Z,3.60
2023-05-08T16:51:08.423Z,3.00
2023-05-08T16:53:56.109Z,4.30
2023-05-08T16:56:44.419Z,3.70
2023-05-08T16:59:30.838Z,4.30
2023-05-08T17:02:19.082Z,3.80
2023-05-08T17:07:52.448Z,3.70
2023-05-08T17:10:42.164Z,3.40
2023-05-08T17:13:29.055Z,3.20
2023-05-08T17:16:16.267Z,3.70
2023-05-08T17:19:04.336Z,5.00
2023-05-08T17:21:51.158Z,7.10
2023-05-08T17:24:38.110Z,4.40
2023-05-08T17:27:24.374Z,4.80
2023-05-08T17:30:12.233Z,5.70
2023-05-08T17:32:59.309Z,3.60
2023-05-08T17:35:45.980Z,5.20
2023-05-08T17:38:32.353Z,6.50
2023-05-08T17:41:18.713Z,4.40
2023-05-08T17:44:05.152Z,3.80
2023-05-08T17:46:52.002Z,4.20
2023-05-08T17:49:38.290Z,5.00
2023-05-08T17:52:25.147Z,3.40
2023-05-08T17:55:11.596Z,3.60
2023-05-08T17:57:58.294Z,4.50
2023-05-08T18:00:44.840Z,4.20
2023-05-08T18:03:31.981Z,5.90
2023-05-08T18:06:18.915Z,4.80
2023-05-08T18:09:05.742Z,8.60
2023-05-08T18:11:52.608Z,5.40
2023-05-08T18:14:39.408Z,5.60
2023-05-08T18:17:29.356Z,7.70
2023-05-08T18:20:15.993Z,3.80
2023-05-08T18:23:02.369Z,5.50
2023-05-08T18:25:48.573Z,5.40
2023-05-08T18:28:36.283Z,4.70
2023-05-08T18:31:22.562Z,5.40
2023-05-08T18:34:09.183Z,7.40
2023-05-08T18:36:56.807Z,8.70
2023-05-08T18:39:44.603Z,6.10
2023-05-08T18:42:31.480Z,6.40
2023-05-08T18:45:17.691Z,8.00
2023-05-08T18:48:04.741Z,6.20
2023-05-08T18:50:51.667Z,10.90
2023-05-08T18:53:38.924Z,65.70
2023-05-08T18:56:26.040Z,64.80
2023-05-08T18:59:12.647Z,70.00
2023-05-08T19:01:59.079Z,64.30
2023-05-08T19:04:46.153Z,26.70
2023-05-08T19:07:32.480Z,30.60
2023-05-08T19:10:18.693Z,14.40
2023-05-08T19:13:05.595Z,13.10
2023-05-08T19:15:53.481Z,18.00
2023-05-08T19:18:40.111Z,17.40
2023-05-08T19:21:26.862Z,20.20
2023-05-08T19:24:16.228Z,30.30
2023-05-08T19:27:02.819Z,36.40
2023-05-08T19:29:49.438Z,34.50
2023-05-08T19:32:35.691Z,34.00
2023-05-08T19:35:22.567Z,33.00
2023-05-08T19:38:08.972Z,36.00
2023-05-08T19:40:57.209Z,36.40
2023-05-08T19:43:44.291Z,25.70
2023-05-08T19:46:30.700Z,27.80
2023-05-08T19:49:17.724Z,22.70
2023-05-08T19:52:04.787Z,19.80
2023-05-08T19:54:51.794Z,22.20
2023-05-08T19:57:38.642Z,18.70
2023-05-08T20:00:25.203Z,21.30
2023-05-08T20:03:11.891Z,18.10
2023-05-08T20:05:58.776Z,17.60
2023-05-08T20:08:45.357Z,15.50
2023-05-08T20:11:31.730Z,13.60
2023-05-08T20:14:18.168Z,13.60
2023-05-08T20:17:04.903Z,13.20
2023-05-08T20:19:51.523Z,13.10
2023-05-08T20:22:37.970Z,14.00
2023-05-08T20:25:24.423Z,15.40
2023-05-08T20:28:11.146Z,16.20
2023-05-08T20:30:57.685Z,12.10
2023-05-08T20:33:44.372Z,13.60
2023-05-08T20:36:31.483Z,14.30
2023-05-08T20:39:18.021Z,15.00
2023-05-08T20:42:04.736Z,17.80
2023-05-08T20:44:51.058Z,15.30
2023-05-08T20:47:37.764Z,18.90
2023-05-08T20:50:24.808Z,13.20
2023-05-08T20:53:11.418Z,17.80
2023-05-08T20:56:02.156Z,14.80
2023-05-08T20:58:48.886Z,17.70
2023-05-08T21:01:35.265Z,19.10
2023-05-08T21:04:21.846Z,12.80
2023-05-08T21:07:08.634Z,16.60
2023-05-08T21:09:55.014Z,13.90
2023-05-08T21:12:41.708Z,16.90
2023-05-08T21:15:28.185Z,16.10
2023-05-08T21:18:15.037Z,16.60
2023-05-08T21:21:01.448Z,15.50
2023-05-08T21:23:48.239Z,18.20
2023-05-08T21:26:34.946Z,15.70
2023-05-08T21:29:21.398Z,17.70
2023-05-08T21:32:10.067Z,18.00
2023-05-08T21:34:56.805Z,15.80
2023-05-08T21:37:43.503Z,15.30
2023-05-08T21:40:29.990Z,18.00
2023-05-08T21:43:16.356Z,17.40
2023-05-08T21:46:07.389Z,14.60
2023-05-08T21:48:53.902Z,18.10
2023-05-08T21:51:40.470Z,15.40
2023-05-08T21:54:27.246Z,13.90
2023-05-08T21:57:13.618Z,19.70
2023-05-08T21:59:59.875Z,19.10
2023-05-08T22:02:46.502Z,18.20
2023-05-08T22:05:33.076Z,18.30
2023-05-08T22:08:19.490Z,16.80
2023-05-08T22:11:06.059Z,21.20
2023-05-08T22:13:52.456Z,18.60
2023-05-08T22:16:39.276Z,20.20
2023-05-08T22:19:26.072Z,28.50
2023-05-08T22:22:12.826Z,25.10
2023-05-08T22:24:59.488Z,26.30
2023-05-08T22:27:46.046Z,26.40
2023-05-08T22:30:32.556Z,25.50
2023-05-08T22:33:19.066Z,27.60
2023-05-08T22:36:06.079Z,23.60
2023-05-08T22:38:52.817Z,28.80
2023-05-08T22:41:39.994Z,30.30
2023-05-08T22:44:26.782Z,28.90
2023-05-08T22:47:13.699Z,24.30
2023-05-08T22:50:00.015Z,26.10
2023-05-08T22:52:47.004Z,29.90
2023-05-08T22:55:35.280Z,26.00
2023-05-08T22:58:21.595Z,25.10
2023-05-08T23:01:08.255Z,23.80
2023-05-08T23:03:54.898Z,19.60
2023-05-08T23:06:41.077Z,26.20
2023-05-08T23:09:27.790Z,25.10
2023-05-08T23:12:14.244Z,21.30
2023-05-08T23:15:00.818Z,26.90
2023-05-08T23:17:47.169Z,17.40
2023-05-08T23:20:33.453Z,16.80
2023-05-08T23:23:19.902Z,19.70
2023-05-08T23:26:06.706Z,23.30
2023-05-08T23:28:53.537Z,26.70
2023-05-08T23:31:40.411Z,22.80
2023-05-08T23:34:27.127Z,23.10
2023-05-08T23:37:13.553Z,21.10
2023-05-08T23:39:59.686Z,22.10
2023-05-08T23:42:46.594Z,30.80
2023-05-08T23:45:33.095Z,30.10
2023-05-08T23:48:19.277Z,28.30
2023-05-08T23:51:06.254Z,30.80
2023-05-08T23:53:52.648Z,31.00
2023-05-08T23:56:39.175Z,31.00
2023-05-08T23:59:25.771Z,25.30
